Time;durP1;ratioP1;P1;durP2;ratioP2;P2;SDS_P1;SDS_P2;PMS_P1;PMS_P2;Temp;Humidity;BMP_temperature;BMP_pressure;BME280_temperature;BME280_humidity;BME280_pressure;Samples;Min_cycle;Max_cycle;Signal;HPM_P1;HPM_P2
2024/01/04 00:02:16;;;;;;;7.70;3.28;;;;;;;;;;4803650;29;20054;-78
2024/01/04 00:04:43;;;;;;;10.70;4.07;;;;;;;;;;4803262;29;20059;-79
2024/01/04 00:07:09;;;;;;;8.05;4.07;;;;;;;;;;4784786;29;20067;-77
2024/01/04 00:09:36;;;;;;;7.03;4.10;;;;;;;;;;4792948;29;20062;-77
2024/01/04 00:12:03;;;;;;;8.65;4.28;;;;;;;;;;4790399;29;20131;-78
2024/01/04 00:14:29;;;;;;;9.07;4.30;;;;;;;;;;4796140;29;20079;-79
2024/01/04 00:16:55;;;;;;;9.38;4.53;;;;;;;;;;4792142;29;20047;-78
2024/01/04 00:19:22;;;;;;;9.18;3.90;;;;;;;;;;4814584;29;20092;-78
2024/01/04 00:21:49;;;;;;;11.02;4.78;;;;;;;;;;4791484;29;20054;-79
2024/01/04 00:24:15;;;;;;;10.57;4.93;;;;;;;;;;4812064;29;20308;-80
2024/01/04 00:26:42;;;;;;;14.07;4.43;;;;;;;;;;4812759;29;20050;-82
2024/01/04 00:29:08;;;;;;;14.40;4.82;;;;;;;;;;4791647;29;20047;-80
2024/01/04 00:31:35;;;;;;;9.82;4.07;;;;;;;;;;4783382;29;20090;-80
2024/01/04 00:34:02;;;;;;;11.85;4.20;;;;;;;;;;4788920;29;20181;-80
2024/01/04 00:36:29;;;;;;;7.35;3.22;;;;;;;;;;4790472;29;20074;-79
2024/01/04 00:38:55;;;;;;;9.93;3.10;;;;;;;;;;4785561;29;20054;-79
2024/01/04 00:41:22;;;;;;;8.32;3.22;;;;;;;;;;4783645;29;20137;-78
2024/01/04 00:43:49;;;;;;;4.82;2.88;;;;;;;;;;4790694;29;20139;-78
2024/01/04 00:46:16;;;;;;;8.93;2.65;;;;;;;;;;4777476;29;20166;-79
2024/01/04 00:48:42;;;;;;;6.45;2.67;;;;;;;;;;4787458;29;20078;-75
2024/01/04 00:51:09;;;;;;;7.13;2.92;;;;;;;;;;4806062;29;20086;-75
2024/01/04 00:53:35;;;;;;;4.95;2.35;;;;;;;;;;4797730;29;20063;-74
2024/01/04 00:56:02;;;;;;;4.90;2.05;;;;;;;;;;4798791;29;20135;-75
2024/01/04 00:58:29;;;;;;;9.35;2.28;;;;;;;;;;4794101;29;20042;-76
2024/01/04 01:00:57;;;;;;;9.70;2.92;;;;;;;;;;4804934;29;20140;-75
2024/01/04 01:03:23;;;;;;;10.85;2.97;;;;;;;;;;4793937;29;20073;-75
2024/01/04 01:05:50;;;;;;;8.30;3.00;;;;;;;;;;4795786;29;20053;-75
2024/01/04 01:08:17;;;;;;;9.20;2.92;;;;;;;;;;4802786;29;20070;-75
2024/01/04 01:10:43;;;;;;;7.82;2.35;;;;;;;;;;4792463;29;20059;-74
2024/01/04 01:13:09;;;;;;;6.00;2.47;;;;;;;;;;4806801;29;20047;-74
2024/01/04 01:15:36;;;;;;;12.48;2.90;;;;;;;;;;4785069;29;20055;-75
2024/01/04 01:18:02;;;;;;;6.35;2.00;;;;;;;;;;4788977;29;20051;-74
2024/01/04 01:20:29;;;;;;;9.05;2.13;;;;;;;;;;4793636;29;20055;-74
2024/01/04 01:22:55;;;;;;;6.72;1.95;;;;;;;;;;4807838;29;20066;-75
2024/01/04 01:25:22;;;;;;;9.82;1.90;;;;;;;;;;4799101;29;20055;-74
2024/01/04 01:27:48;;;;;;;3.97;1.55;;;;;;;;;;4787913;29;20830;-74
2024/01/04 01:30:15;;;;;;;5.68;1.80;;;;;;;;;;4788986;29;20059;-74
2024/01/04 01:32:41;;;;;;;3.75;1.80;;;;;;;;;;4795871;29;20051;-74
2024/01/04 01:35:08;;;;;;;5.95;1.80;;;;;;;;;;4799723;29;20539;-75
2024/01/04 01:37:35;;;;;;;11.85;2.03;;;;;;;;;;4800911;29;20051;-74
2024/01/04 01:40:02;;;;;;;5.63;1.67;;;;;;;;;;4790543;29;20086;-73
2024/01/04 01:42:28;;;;;;;6.80;1.98;;;;;;;;;;4795169;29;20413;-74
2024/01/04 01:44:55;;;;;;;5.97;1.77;;;;;;;;;;4792342;29;20388;-74
2024/01/04 01:47:24;;;;;;;9.00;2.08;;;;;;;;;;4799669;29;20050;-74
2024/01/04 01:49:50;;;;;;;5.50;2.35;;;;;;;;;;4798788;29;20054;-75
2024/01/04 01:52:17;;;;;;;11.13;2.25;;;;;;;;;;4807929;29;20090;-74
2024/01/04 01:54:43;;;;;;;6.20;1.90;;;;;;;;;;4790385;29;20146;-74
2024/01/04 01:57:10;;;;;;;4.90;1.98;;;;;;;;;;4787389;29;20139;-74
2024/01/04 01:59:37;;;;;;;5.70;2.30;;;;;;;;;;4796988;29;20058;-73
2024/01/04 02:02:03;;;;;;;8.55;2.65;;;;;;;;;;4794193;29;20590;-75
2024/01/04 02:04:30;;;;;;;6.47;1.92;;;;;;;;;;4796000;29;20223;-73
2024/01/04 02:06:56;;;;;;;7.30;2.00;;;;;;;;;;4787282;29;20159;-74
2024/01/04 02:09:23;;;;;;;8.55;1.90;;;;;;;;;;4772270;29;20147;-74
2024/01/04 02:11:49;;;;;;;10.05;1.90;;;;;;;;;;4786689;29;20058;-74
2024/01/04 02:14:16;;;;;;;10.90;2.33;;;;;;;;;;4792560;29;20074;-74
2024/01/04 02:16:42;;;;;;;4.80;2.13;;;;;;;;;;4798144;29;20084;-74
2024/01/04 02:19:09;;;;;;;5.65;1.92;;;;;;;;;;4799554;29;20208;-74
2024/01/04 02:21:39;;;;;;;4.88;2.10;;;;;;;;;;4787203;29;20073;-74
2024/01/04 02:24:05;;;;;;;5.65;2.22;;;;;;;;;;4792731;29;20147;-75
2024/01/04 02:26:32;;;;;;;12.23;3.05;;;;;;;;;;4789903;29;20050;-74
2024/01/04 02:28:59;;;;;;;4.93;2.03;;;;;;;;;;4795670;29;20055;-74
2024/01/04 02:31:25;;;;;;;12.80;2.92;;;;;;;;;;4788644;29;20054;-72
2024/01/04 02:33:51;;;;;;;8.18;2.58;;;;;;;;;;4793317;29;20094;-74
2024/01/04 02:36:18;;;;;;;12.23;2.63;;;;;;;;;;4795267;29;20073;-73
2024/01/04 02:38:45;;;;;;;13.65;3.15;;;;;;;;;;4786492;29;20108;-74
2024/01/04 02:41:11;;;;;;;11.27;3.13;;;;;;;;;;4796326;29;20050;-74
2024/01/04 02:43:37;;;;;;;5.68;2.65;;;;;;;;;;4791987;29;20054;-74
2024/01/04 02:46:04;;;;;;;11.73;3.10;;;;;;;;;;4793842;29;20054;-74
2024/01/04 02:48:30;;;;;;;10.80;2.60;;;;;;;;;;4794534;29;20104;-73
2024/01/04 02:50:57;;;;;;;10.27;2.83;;;;;;;;;;4802616;29;21047;-74
2024/01/04 02:53:23;;;;;;;8.23;2.67;;;;;;;;;;4793920;29;20421;-74
2024/01/04 02:55:50;;;;;;;8.98;3.13;;;;;;;;;;4790127;29;20082;-74
2024/01/04 02:58:16;;;;;;;7.63;3.28;;;;;;;;;;4796733;29;20322;-76
2024/01/04 03:00:42;;;;;;;8.68;3.13;;;;;;;;;;4792009;29;20046;-74
2024/01/04 03:03:09;;;;;;;9.63;3.20;;;;;;;;;;4792987;29;20053;-73
2024/01/04 03:05:35;;;;;;;9.38;2.95;;;;;;;;;;4791915;29;20142;-74
2024/01/04 03:08:01;;;;;;;8.82;3.10;;;;;;;;;;4787105;29;20171;-74
2024/01/04 03:10:28;;;;;;;9.60;2.80;;;;;;;;;;4795360;29;20113;-74
2024/01/04 03:12:55;;;;;;;8.23;3.15;;;;;;;;;;4783952;29;20153;-74
2024/01/04 03:15:21;;;;;;;4.50;2.70;;;;;;;;;;4795249;29;20116;-74
2024/01/04 03:17:49;;;;;;;5.72;2.78;;;;;;;;;;4797609;29;20085;-74
2024/01/04 03:20:15;;;;;;;10.20;3.30;;;;;;;;;;4800345;29;20079;-74
2024/01/04 03:22:42;;;;;;;10.32;3.10;;;;;;;;;;4792413;29;20098;-74
2024/01/04 03:25:09;;;;;;;8.10;3.00;;;;;;;;;;4791373;29;20115;-74
2024/01/04 03:27:36;;;;;;;8.57;3.13;;;;;;;;;;4808437;29;20049;-74
2024/01/04 03:30:02;;;;;;;6.78;2.50;;;;;;;;;;4796147;29;20119;-74
2024/01/04 03:32:29;;;;;;;9.15;3.38;;;;;;;;;;4792074;29;20067;-75
2024/01/04 03:34:55;;;;;;;7.43;2.70;;;;;;;;;;4791532;29;20055;-74
2024/01/04 03:37:22;;;;;;;7.70;3.22;;;;;;;;;;4788529;29;20054;-74
2024/01/04 03:39:49;;;;;;;6.55;3.17;;;;;;;;;;4792361;29;20055;-74
2024/01/04 03:42:16;;;;;;;8.82;3.05;;;;;;;;;;4790739;29;20054;-76
2024/01/04 03:44:42;;;;;;;8.93;3.10;;;;;;;;;;4808932;29;20059;-76
2024/01/04 03:47:08;;;;;;;10.20;2.97;;;;;;;;;;4798068;29;20133;-77
2024/01/04 03:49:35;;;;;;;10.45;2.90;;;;;;;;;;4787884;29;20483;-77
2024/01/04 03:52:02;;;;;;;7.95;2.95;;;;;;;;;;4788801;29;20547;-76
2024/01/04 03:54:28;;;;;;;6.72;2.70;;;;;;;;;;4803489;29;20058;-78
2024/01/04 03:56:55;;;;;;;12.73;3.00;;;;;;;;;;4793008;29;20457;-77
2024/01/04 03:59:21;;;;;;;9.48;3.70;;;;;;;;;;4802910;29;20063;-76
2024/01/04 04:01:48;;;;;;;11.18;3.33;;;;;;;;;;4794195;29;20066;-77
2024/01/04 04:04:15;;;;;;;8.07;2.90;;;;;;;;;;4789296;29;20797;-77
2024/01/04 04:06:41;;;;;;;7.22;3.08;;;;;;;;;;4797636;29;20131;-77
2024/01/04 04:09:08;;;;;;;7.78;3.13;;;;;;;;;;4792491;29;20054;-77
2024/01/04 04:11:35;;;;;;;9.88;3.28;;;;;;;;;;4791310;29;20059;-77
2024/01/04 04:14:02;;;;;;;6.10;2.85;;;;;;;;;;4796208;29;20111;-77
2024/01/04 04:16:30;;;;;;;7.72;2.95;;;;;;;;;;4808665;29;20109;-77
2024/01/04 04:18:57;;;;;;;8.88;3.28;;;;;;;;;;4784292;29;20961;-77
2024/01/04 04:21:24;;;;;;;9.30;3.40;;;;;;;;;;4794205;29;20050;-77
2024/01/04 04:23:50;;;;;;;6.50;2.65;;;;;;;;;;4787980;29;20046;-77
2024/01/04 04:26:20;;;;;;;8.80;2.75;;;;;;;;;;4797271;29;20517;-77
2024/01/04 04:28:51;;;;;;;6.05;2.58;;;;;;;;;;4790101;29;20576;-75
2024/01/04 04:31:18;;;;;;;7.32;2.25;;;;;;;;;;4789883;29;20051;-75
2024/01/04 04:33:45;;;;;;;5.07;2.10;;;;;;;;;;4804596;29;20065;-76
2024/01/04 04:36:12;;;;;;;9.52;2.53;;;;;;;;;;4789945;29;20893;-75
2024/01/04 04:38:39;;;;;;;9.30;2.80;;;;;;;;;;4796774;29;20078;-75
2024/01/04 04:41:06;;;;;;;10.30;2.72;;;;;;;;;;4787865;29;20163;-75
2024/01/04 04:43:32;;;;;;;6.90;2.28;;;;;;;;;;4794833;29;20820;-75
2024/01/04 04:45:59;;;;;;;4.45;2.20;;;;;;;;;;4784877;29;20047;-75
2024/01/04 04:48:25;;;;;;;3.83;1.90;;;;;;;;;;4792274;29;20076;-75
2024/01/04 04:50:53;;;;;;;4.40;2.33;;;;;;;;;;4793739;29;20051;-75
2024/01/04 04:53:20;;;;;;;7.43;2.20;;;;;;;;;;4805396;29;20100;-75
2024/01/04 04:55:46;;;;;;;6.28;2.60;;;;;;;;;;4794639;29;20054;-75
2024/01/04 04:58:12;;;;;;;5.80;2.30;;;;;;;;;;4791851;29;20062;-75
2024/01/04 05:00:39;;;;;;;7.55;2.53;;;;;;;;;;4801480;29;20100;-75
2024/01/04 05:03:06;;;;;;;5.55;2.10;;;;;;;;;;4792851;29;20055;-75
2024/01/04 05:05:33;;;;;;;5.45;2.25;;;;;;;;;;4787245;29;20070;-75
2024/01/04 05:07:59;;;;;;;7.35;2.60;;;;;;;;;;4809605;29;20133;-75
2024/01/04 05:10:26;;;;;;;7.13;2.72;;;;;;;;;;4789334;29;20132;-76
2024/01/04 05:12:52;;;;;;;10.00;3.03;;;;;;;;;;4791489;29;20051;-76
2024/01/04 05:15:19;;;;;;;6.95;2.60;;;;;;;;;;4785677;29;20569;-76
2024/01/04 05:17:45;;;;;;;7.75;2.33;;;;;;;;;;4792618;29;20759;-76
2024/01/04 05:20:12;;;;;;;7.07;2.92;;;;;;;;;;4794787;29;20059;-76
2024/01/04 05:22:39;;;;;;;9.45;4.53;;;;;;;;;;4784734;29;20058;-76
2024/01/04 05:25:06;;;;;;;4.55;2.80;;;;;;;;;;4795288;29;20531;-76
2024/01/04 05:27:32;;;;;;;9.98;2.75;;;;;;;;;;4788565;29;20059;-76
2024/01/04 05:29:58;;;;;;;7.55;2.78;;;;;;;;;;4803510;29;20759;-76
2024/01/04 05:32:25;;;;;;;9.05;2.60;;;;;;;;;;4786486;29;20058;-75
2024/01/04 05:34:52;;;;;;;8.98;3.00;;;;;;;;;;4790244;29;20424;-75
2024/01/04 05:37:18;;;;;;;7.22;2.97;;;;;;;;;;4799479;29;20086;-76
2024/01/04 05:39:45;;;;;;;7.57;2.80;;;;;;;;;;4790758;29;20077;-76
2024/01/04 05:42:12;;;;;;;7.38;2.67;;;;;;;;;;4798509;29;20058;-77
2024/01/04 05:44:38;;;;;;;5.03;2.25;;;;;;;;;;4798156;29;20055;-75
2024/01/04 05:47:05;;;;;;;5.60;2.40;;;;;;;;;;4797598;29;20107;-77
2024/01/04 05:49:32;;;;;;;10.32;2.90;;;;;;;;;;4800006;29;20090;-75
2024/01/04 05:51:58;;;;;;;9.70;3.33;;;;;;;;;;4791035;29;20063;-76
2024/01/04 05:54:24;;;;;;;6.85;2.63;;;;;;;;;;4798827;29;20054;-75
2024/01/04 05:56:51;;;;;;;8.30;2.85;;;;;;;;;;4787298;29;20050;-75
2024/01/04 05:59:17;;;;;;;6.78;2.80;;;;;;;;;;4803334;29;20051;-75
2024/01/04 06:01:44;;;;;;;6.30;2.72;;;;;;;;;;4793981;29;20563;-75
2024/01/04 06:04:10;;;;;;;7.72;2.08;;;;;;;;;;4793290;29;20082;-75
2024/01/04 06:06:37;;;;;;;7.45;2.83;;;;;;;;;;4798956;29;20112;-75
2024/01/04 06:09:03;;;;;;;7.22;2.90;;;;;;;;;;4787834;29;20061;-75
2024/01/04 06:11:30;;;;;;;7.55;3.17;;;;;;;;;;4789127;29;20058;-76
2024/01/04 06:13:56;;;;;;;7.15;2.90;;;;;;;;;;4787016;29;20094;-75
2024/01/04 06:16:23;;;;;;;7.47;2.80;;;;;;;;;;4794061;29;20128;-77
2024/01/04 06:18:49;;;;;;;6.22;3.17;;;;;;;;;;4797454;29;20503;-74
2024/01/04 06:21:16;;;;;;;6.47;2.80;;;;;;;;;;4792163;29;20151;-74
2024/01/04 06:23:43;;;;;;;4.88;2.63;;;;;;;;;;4794388;29;20059;-74
2024/01/04 06:26:09;;;;;;;5.65;2.45;;;;;;;;;;4786868;29;20054;-76
2024/01/04 06:28:37;;;;;;;6.10;2.40;;;;;;;;;;4795270;29;20082;-76
2024/01/04 06:31:03;;;;;;;3.55;2.00;;;;;;;;;;4810633;29;20824;-73
2024/01/04 06:33:30;;;;;;;7.30;3.30;;;;;;;;;;4791877;29;20080;-75
2024/01/04 06:35:56;;;;;;;5.95;2.58;;;;;;;;;;4793600;29;20062;-75
2024/01/04 06:38:24;;;;;;;7.63;2.60;;;;;;;;;;4791355;29;20069;-74
2024/01/04 06:40:52;;;;;;;4.22;1.95;;;;;;;;;;4804223;29;20115;-74
2024/01/04 06:43:19;;;;;;;3.33;1.80;;;;;;;;;;4785754;29;20055;-75
2024/01/04 06:45:45;;;;;;;7.38;2.15;;;;;;;;;;4797669;29;20207;-75
2024/01/04 06:48:11;;;;;;;5.65;1.92;;;;;;;;;;4809047;29;20092;-75
2024/01/04 06:50:38;;;;;;;9.70;2.40;;;;;;;;;;4789785;29;20130;-75
2024/01/04 06:53:05;;;;;;;6.90;2.10;;;;;;;;;;4797862;29;20051;-74
2024/01/04 06:55:31;;;;;;;5.00;1.92;;;;;;;;;;4780486;29;20144;-74
2024/01/04 06:57:57;;;;;;;5.85;2.17;;;;;;;;;;4794683;29;20137;-74
2024/01/04 07:00:24;;;;;;;5.93;2.35;;;;;;;;;;4791903;29;20120;-75
2024/01/04 07:02:51;;;;;;;5.40;2.30;;;;;;;;;;4789286;29;20055;-75
2024/01/04 07:05:18;;;;;;;3.38;1.88;;;;;;;;;;4798977;29;20055;-74
2024/01/04 07:07:44;;;;;;;3.97;2.40;;;;;;;;;;4786660;29;20122;-75
2024/01/04 07:10:11;;;;;;;4.13;2.33;;;;;;;;;;4807950;29;20058;-74
2024/01/04 07:12:37;;;;;;;5.70;2.38;;;;;;;;;;4807195;29;20051;-75
2024/01/04 07:15:04;;;;;;;5.10;1.95;;;;;;;;;;4798088;29;20767;-75
2024/01/04 07:17:31;;;;;;;4.72;2.00;;;;;;;;;;4798680;29;20058;-75
2024/01/04 07:19:57;;;;;;;4.13;2.17;;;;;;;;;;4792081;29;20677;-75
2024/01/04 07:22:24;;;;;;;6.97;1.92;;;;;;;;;;4794618;29;20047;-76
2024/01/04 07:24:50;;;;;;;6.40;2.00;;;;;;;;;;4787375;29;20066;-76
2024/01/04 07:27:17;;;;;;;3.88;1.77;;;;;;;;;;4811112;29;20047;-75
2024/01/04 07:29:43;;;;;;;3.78;1.70;;;;;;;;;;4797396;29;20081;-75
2024/01/04 07:32:10;;;;;;;5.15;2.63;;;;;;;;;;4805691;29;20047;-75
2024/01/04 07:34:39;;;;;;;5.15;2.03;;;;;;;;;;4798295;29;20141;-75
2024/01/04 07:37:07;;;;;;;4.70;2.10;;;;;;;;;;4784793;29;20508;-74
2024/01/04 07:39:33;;;;;;;5.68;1.98;;;;;;;;;;4793827;29;20682;-77
2024/01/04 07:42:00;;;;;;;3.38;1.85;;;;;;;;;;4793593;29;20145;-77
2024/01/04 07:44:26;;;;;;;2.55;1.70;;;;;;;;;;4797118;29;20137;-77
2024/01/04 07:46:52;;;;;;;4.13;1.90;;;;;;;;;;4797992;29;20489;-77
2024/01/04 07:49:19;;;;;;;3.63;2.08;;;;;;;;;;4787110;29;20058;-78
2024/01/04 07:51:45;;;;;;;3.47;2.05;;;;;;;;;;4786980;29;20061;-77
2024/01/04 07:54:12;;;;;;;15.85;3.40;;;;;;;;;;4778309;29;20055;-78
2024/01/04 07:56:38;;;;;;;2.70;1.92;;;;;;;;;;4809624;29;20055;-78
2024/01/04 07:59:05;;;;;;;6.82;2.30;;;;;;;;;;4797445;29;20062;-78
2024/01/04 08:01:31;;;;;;;4.22;2.50;;;;;;;;;;4793229;29;20063;-77
2024/01/04 08:03:59;;;;;;;6.03;2.17;;;;;;;;;;4796292;29;20170;-78
2024/01/04 08:06:26;;;;;;;4.15;2.50;;;;;;;;;;4794420;29;20747;-77
2024/01/04 08:08:52;;;;;;;5.30;2.55;;;;;;;;;;4779012;29;20074;-76
2024/01/04 08:11:19;;;;;;;6.35;2.83;;;;;;;;;;4785834;29;20133;-77
2024/01/04 08:13:46;;;;;;;4.00;2.50;;;;;;;;;;4790732;29;20122;-78
2024/01/04 08:16:12;;;;;;;4.68;2.45;;;;;;;;;;4795737;29;20042;-77
2024/01/04 08:18:38;;;;;;;4.75;2.45;;;;;;;;;;4793159;29;20054;-77
2024/01/04 08:21:05;;;;;;;6.82;3.28;;;;;;;;;;4790822;29;20607;-77
2024/01/04 08:23:32;;;;;;;7.15;3.22;;;;;;;;;;4798137;29;20112;-77
2024/01/04 08:25:58;;;;;;;6.10;2.75;;;;;;;;;;4795304;29;20128;-76
2024/01/04 08:28:25;;;;;;;5.00;2.63;;;;;;;;;;4795215;29;20594;-76
2024/01/04 08:30:51;;;;;;;7.07;3.33;;;;;;;;;;4789416;29;20058;-76
2024/01/04 08:33:18;;;;;;;5.47;2.85;;;;;;;;;;4793882;29;20042;-77
2024/01/04 08:35:44;;;;;;;4.80;2.90;;;;;;;;;;4787360;29;20883;-77
2024/01/04 08:38:11;;;;;;;6.80;3.10;;;;;;;;;;4796491;29;20058;-77
2024/01/04 08:40:38;;;;;;;5.13;2.63;;;;;;;;;;4805514;29;20423;-77
2024/01/04 08:43:06;;;;;;;5.65;2.90;;;;;;;;;;4798225;29;20094;-76
2024/01/04 08:45:33;;;;;;;8.32;3.15;;;;;;;;;;4787413;29;20062;-76
2024/01/04 08:47:59;;;;;;;6.72;3.13;;;;;;;;;;4780549;29;20090;-76
2024/01/04 08:50:25;;;;;;;5.30;3.03;;;;;;;;;;4793223;29;20063;-77
2024/01/04 08:52:52;;;;;;;7.45;3.40;;;;;;;;;;4783064;29;20651;-76
2024/01/04 08:55:20;;;;;;;4.00;2.38;;;;;;;;;;4797238;29;20148;-76
2024/01/04 08:57:46;;;;;;;7.05;2.95;;;;;;;;;;4804268;29;20119;-76
2024/01/04 09:00:14;;;;;;;6.70;2.60;;;;;;;;;;4782220;29;20059;-75
2024/01/04 09:02:42;;;;;;;4.18;2.78;;;;;;;;;;4790785;29;20150;-74
2024/01/04 09:05:09;;;;;;;5.35;2.85;;;;;;;;;;4787281;29;20051;-74
2024/01/04 09:07:38;;;;;;;6.20;3.00;;;;;;;;;;4792228;29;20077;-74
2024/01/04 09:10:05;;;;;;;6.03;2.88;;;;;;;;;;4792835;29;20063;-75
2024/01/04 09:12:31;;;;;;;5.28;2.63;;;;;;;;;;4798124;29;20051;-75
2024/01/04 09:14:58;;;;;;;6.40;2.45;;;;;;;;;;4797618;29;20103;-75
2024/01/04 09:17:25;;;;;;;4.90;2.45;;;;;;;;;;4789816;29;20104;-76
2024/01/04 09:19:52;;;;;;;6.22;3.10;;;;;;;;;;4793501;29;20051;-75
2024/01/04 09:22:18;;;;;;;5.43;2.83;;;;;;;;;;4793401;29;20055;-76
2024/01/04 09:24:45;;;;;;;6.97;2.67;;;;;;;;;;4797766;29;20066;-75
2024/01/04 09:27:12;;;;;;;6.38;2.78;;;;;;;;;;4797345;29;20047;-74
2024/01/04 09:29:39;;;;;;;6.82;3.33;;;;;;;;;;4788726;29;20131;-75
2024/01/04 09:32:05;;;;;;;6.80;3.08;;;;;;;;;;4797301;29;20065;-78
2024/01/04 09:34:32;;;;;;;5.90;3.67;;;;;;;;;;4793603;29;20057;-78
2024/01/04 09:37:00;;;;;;;5.75;3.20;;;;;;;;;;4797787;29;20090;-74
2024/01/04 09:39:27;;;;;;;6.88;3.55;;;;;;;;;;4796905;29;20149;-74
2024/01/04 09:41:56;;;;;;;8.13;3.58;;;;;;;;;;4794487;29;20086;-74
2024/01/04 09:44:24;;;;;;;7.72;3.90;;;;;;;;;;4805579;29;20070;-73
2024/01/04 09:46:52;;;;;;;6.13;3.88;;;;;;;;;;4788214;29;20499;-76
2024/01/04 09:49:19;;;;;;;8.82;3.78;;;;;;;;;;4795998;29;20047;-77
2024/01/04 09:51:49;;;;;;;8.18;3.47;;;;;;;;;;4792804;29;20058;-75
2024/01/04 09:54:16;;;;;;;9.68;4.50;;;;;;;;;;4797736;29;20050;-75
2024/01/04 09:56:44;;;;;;;9.23;4.18;;;;;;;;;;4806286;29;20141;-74
2024/01/04 09:59:11;;;;;;;6.43;3.53;;;;;;;;;;4786835;29;20464;-76
2024/01/04 10:01:38;;;;;;;7.55;4.03;;;;;;;;;;4797582;29;20436;-75
2024/01/04 10:04:06;;;;;;;7.45;4.05;;;;;;;;;;4795239;29;20111;-76
2024/01/04 10:06:35;;;;;;;9.30;4.15;;;;;;;;;;4814976;29;20078;-76
2024/01/04 10:09:28;;;;;;;10.63;5.18;;;;;;;;;;4800273;29;20119;-75
2024/01/04 10:11:57;;;;;;;12.45;4.50;;;;;;;;;;4788171;29;20059;-77
2024/01/04 10:14:24;;;;;;;9.02;4.80;;;;;;;;;;4807508;29;20055;-75
2024/01/04 10:16:51;;;;;;;8.52;4.88;;;;;;;;;;4793155;29;20059;-76
2024/01/04 10:19:18;;;;;;;9.35;4.88;;;;;;;;;;4800379;29;20050;-75
2024/01/04 10:21:45;;;;;;;6.13;3.72;;;;;;;;;;4787216;29;20126;-78
2024/01/04 10:24:15;;;;;;;8.25;4.30;;;;;;;;;;4793884;29;20054;-75
2024/01/04 10:26:44;;;;;;;8.32;4.28;;;;;;;;;;4795493;29;20153;-74
2024/01/04 10:29:10;;;;;;;6.28;3.78;;;;;;;;;;4799180;29;20055;-75
2024/01/04 10:31:37;;;;;;;7.43;4.05;;;;;;;;;;4809971;29;20059;-77
2024/01/04 10:34:03;;;;;;;5.90;3.70;;;;;;;;;;4792503;29;20396;-77
2024/01/04 10:36:32;;;;;;;5.70;3.15;;;;;;;;;;4798828;29;20149;-77
2024/01/04 10:39:00;;;;;;;6.00;3.13;;;;;;;;;;4793940;29;20094;-75
2024/01/04 10:41:30;;;;;;;6.53;2.90;;;;;;;;;;4793700;29;20067;-77
2024/01/04 10:44:08;;;;;;;5.57;2.65;;;;;;;;;;4801303;29;20135;-77
2024/01/04 10:46:35;;;;;;;5.80;2.42;;;;;;;;;;4793569;29;20074;-78
2024/01/04 10:49:02;;;;;;;6.82;3.15;;;;;;;;;;4796507;29;20108;-76
2024/01/04 10:51:33;;;;;;;6.53;2.80;;;;;;;;;;4782835;29;20452;-77
2024/01/04 10:54:01;;;;;;;5.47;2.53;;;;;;;;;;4785722;29;20059;-77
2024/01/04 10:56:29;;;;;;;3.70;2.27;;;;;;;;;;4799556;29;20551;-77
2024/01/04 10:58:55;;;;;;;4.13;2.42;;;;;;;;;;4791151;29;20313;-75
2024/01/04 11:01:22;;;;;;;6.53;2.20;;;;;;;;;;4798523;29;20058;-76
2024/01/04 11:03:49;;;;;;;3.30;1.83;;;;;;;;;;4791195;29;20136;-76
2024/01/04 11:06:15;;;;;;;5.30;2.35;;;;;;;;;;4793015;29;20051;-76
2024/01/04 11:08:42;;;;;;;5.85;2.10;;;;;;;;;;4787824;29;20054;-75
2024/01/04 11:11:10;;;;;;;5.30;1.90;;;;;;;;;;4794308;29;20051;-75
2024/01/04 11:13:36;;;;;;;3.83;1.65;;;;;;;;;;4795842;29;20042;-79
2024/01/04 11:16:08;;;;;;;3.22;1.70;;;;;;;;;;4792828;29;20059;-75
2024/01/04 11:18:35;;;;;;;5.47;2.13;;;;;;;;;;4795359;29;20669;-77
2024/01/04 11:21:02;;;;;;;4.15;1.60;;;;;;;;;;4788368;29;20133;-78
2024/01/04 11:23:47;;;;;;;4.38;1.83;;;;;;;;;;4810568;29;20063;-77
2024/01/04 11:26:32;;;;;;;4.07;1.67;;;;;;;;;;4783453;29;20059;-78
2024/01/04 11:28:59;;;;;;;2.63;1.50;;;;;;;;;;4812284;29;20094;-79
2024/01/04 11:31:25;;;;;;;4.18;1.58;;;;;;;;;;4793772;29;20054;-75
2024/01/04 11:33:52;;;;;;;2.92;1.60;;;;;;;;;;4800775;29;20155;-79
2024/01/04 11:36:19;;;;;;;3.67;1.48;;;;;;;;;;4792796;29;20112;-79
2024/01/04 11:38:47;;;;;;;3.78;1.92;;;;;;;;;;4789669;29;20149;-79
2024/01/04 11:41:13;;;;;;;3.38;1.58;;;;;;;;;;4794180;29;20412;-76
2024/01/04 11:43:40;;;;;;;3.17;1.80;;;;;;;;;;4807087;29;20069;-76
2024/01/04 11:46:36;;;;;;;1.98;1.65;;;;;;;;;;4783358;29;20062;-76
2024/01/04 11:49:04;;;;;;;4.43;2.10;;;;;;;;;;4795634;29;20066;-79
2024/01/04 11:51:31;;;;;;;;;;;;;;;;;;4798297;29;20063;-78
2024/01/04 11:53:58;;;;;;;3.20;1.77;;;;;;;;;;4800281;29;20509;-79
2024/01/04 11:56:25;;;;;;;4.10;2.10;;;;;;;;;;4801599;29;20079;-79
2024/01/04 11:58:51;;;;;;;8.38;2.22;;;;;;;;;;4804091;29;20063;-78
2024/01/04 12:01:24;;;;;;;4.43;2.30;;;;;;;;;;4804911;29;20059;-78
2024/01/04 12:03:53;;;;;;;3.80;2.60;;;;;;;;;;4799489;29;20061;-79
2024/01/04 12:06:21;;;;;;;4.32;2.58;;;;;;;;;;4816906;29;20134;-78
2024/01/04 12:08:48;;;;;;;4.68;3.10;;;;;;;;;;4807097;29;20598;-76
2024/01/04 12:11:15;;;;;;;7.00;2.97;;;;;;;;;;4800288;29;20058;-77
2024/01/04 12:13:44;;;;;;;5.85;2.70;;;;;;;;;;4794902;29;20051;-77
2024/01/04 12:16:11;;;;;;;6.85;2.50;;;;;;;;;;4800684;29;20054;-79
2024/01/04 12:18:37;;;;;;;4.85;2.50;;;;;;;;;;4800312;29;20637;-77
2024/01/04 12:21:07;;;;;;;5.38;2.60;;;;;;;;;;4795010;29;20065;-76
2024/01/04 12:23:43;;;;;;;6.45;2.78;;;;;;;;;;4798029;29;20054;-77
2024/01/04 12:26:10;;;;;;;6.13;2.67;;;;;;;;;;4797224;29;20070;-76
2024/01/04 12:28:39;;;;;;;7.15;3.35;;;;;;;;;;4802271;29;20062;-77
2024/01/04 12:31:05;;;;;;;7.05;3.08;;;;;;;;;;4793883;29;20042;-74
2024/01/04 12:33:32;;;;;;;3.58;3.00;;;;;;;;;;4796597;29;20050;-73
2024/01/04 12:35:59;;;;;;;7.82;3.20;;;;;;;;;;4794319;29;20047;-74
2024/01/04 12:38:27;;;;;;;3.03;2.70;;;;;;;;;;4791319;29;20051;-73
2024/01/04 12:41:03;;;;;;;4.93;2.55;;;;;;;;;;4801471;29;20417;-76
2024/01/04 12:43:32;;;;;;;5.57;2.40;;;;;;;;;;4797727;29;20126;-74
2024/01/04 12:45:59;;;;;;;3.42;2.40;;;;;;;;;;4803124;29;20130;-77
2024/01/04 12:48:25;;;;;;;3.83;1.80;;;;;;;;;;4809556;29;20130;-74
2024/01/04 12:50:52;;;;;;;4.45;1.70;;;;;;;;;;4791748;29;20050;-78
2024/01/04 12:53:18;;;;;;;3.53;1.38;;;;;;;;;;4806663;29;20050;-78
2024/01/04 12:55:46;;;;;;;3.35;1.55;;;;;;;;;;4797114;29;20133;-77
2024/01/04 12:58:13;;;;;;;2.00;1.30;;;;;;;;;;4799315;29;20046;-78
2024/01/04 13:00:39;;;;;;;2.22;1.08;;;;;;;;;;4802051;29;20062;-78
2024/01/04 13:03:06;;;;;;;2.55;1.10;;;;;;;;;;4808631;29;20142;-75
2024/01/04 13:05:32;;;;;;;1.52;1.10;;;;;;;;;;4814270;29;20070;-77
2024/01/04 13:07:59;;;;;;;4.15;1.48;;;;;;;;;;4800036;29;20440;-77
2024/01/04 13:10:25;;;;;;;2.58;1.38;;;;;;;;;;4805155;29;20125;-76
2024/01/04 13:12:51;;;;;;;2.85;1.20;;;;;;;;;;4794719;29;20085;-78
2024/01/04 13:15:18;;;;;;;3.35;1.20;;;;;;;;;;4802093;29;20070;-76
2024/01/04 13:17:44;;;;;;;2.40;1.60;;;;;;;;;;4802279;29;20195;-76
2024/01/04 13:20:12;;;;;;;3.33;1.80;;;;;;;;;;4796350;29;20046;-75
2024/01/04 13:22:39;;;;;;;2.65;1.70;;;;;;;;;;4803952;29;20054;-74
2024/01/04 13:25:06;;;;;;;3.97;1.77;;;;;;;;;;4811034;29;20133;-75
2024/01/04 13:27:32;;;;;;;3.50;1.60;;;;;;;;;;4801456;29;21744;-74
2024/01/04 13:29:59;;;;;;;7.03;1.90;;;;;;;;;;4801602;29;20064;-73
2024/01/04 13:32:25;;;;;;;5.05;1.58;;;;;;;;;;4788837;29;20055;-74
2024/01/04 13:34:52;;;;;;;3.05;1.70;;;;;;;;;;4807895;29;20079;-74
2024/01/04 13:37:18;;;;;;;3.70;1.50;;;;;;;;;;4786475;29;20634;-74
2024/01/04 13:39:46;;;;;;;3.13;1.45;;;;;;;;;;4797233;29;20063;-74
2024/01/04 13:42:12;;;;;;;4.13;1.25;;;;;;;;;;4790956;29;20063;-74
2024/01/04 13:44:39;;;;;;;3.90;1.38;;;;;;;;;;4797291;29;20058;-74
2024/01/04 13:47:06;;;;;;;4.22;1.30;;;;;;;;;;4811421;29;20059;-75
2024/01/04 13:49:34;;;;;;;2.73;0.90;;;;;;;;;;4793382;29;20063;-74
2024/01/04 13:52:00;;;;;;;2.65;1.00;;;;;;;;;;4795122;29;20295;-75
2024/01/04 13:54:28;;;;;;;3.70;1.20;;;;;;;;;;4794220;29;20062;-74
2024/01/04 13:56:57;;;;;;;1.98;0.80;;;;;;;;;;4804800;29;20073;-74
2024/01/04 13:59:32;;;;;;;3.78;1.23;;;;;;;;;;4797833;29;20051;-75
2024/01/04 14:01:58;;;;;;;3.58;1.20;;;;;;;;;;4792426;29;20062;-74
2024/01/04 14:04:25;;;;;;;2.17;1.00;;;;;;;;;;4801056;29;20046;-74
2024/01/04 14:06:51;;;;;;;1.55;0.90;;;;;;;;;;4796147;29;20121;-75
2024/01/04 14:09:18;;;;;;;1.70;0.90;;;;;;;;;;4801831;29;20086;-75
2024/01/04 14:11:44;;;;;;;2.55;0.82;;;;;;;;;;4796429;29;20416;-77
2024/01/04 14:14:11;;;;;;;4.63;1.00;;;;;;;;;;4800905;29;20123;-74
2024/01/04 14:16:38;;;;;;;2.95;1.13;;;;;;;;;;4803440;29;20115;-80
2024/01/04 14:19:04;;;;;;;4.65;1.38;;;;;;;;;;4799093;29;20054;-79
2024/01/04 14:21:31;;;;;;;3.17;1.35;;;;;;;;;;4818284;29;20065;-79
2024/01/04 14:23:58;;;;;;;3.05;1.20;;;;;;;;;;4804978;29;20059;-78
2024/01/04 14:26:24;;;;;;;2.22;0.95;;;;;;;;;;4800223;29;20062;-80
2024/01/04 14:28:51;;;;;;;1.95;0.82;;;;;;;;;;4802774;29;20122;-79
2024/01/04 14:31:18;;;;;;;2.83;1.08;;;;;;;;;;4794631;29;20082;-78
2024/01/04 14:33:48;;;;;;;2.75;0.77;;;;;;;;;;4817291;29;20051;-82
2024/01/04 14:36:15;;;;;;;1.60;0.90;;;;;;;;;;4798499;29;20085;-79
2024/01/04 14:38:41;;;;;;;4.63;0.80;;;;;;;;;;4798083;29;20065;-81
2024/01/04 14:41:08;;;;;;;2.65;1.00;;;;;;;;;;4799546;29;20061;-80
2024/01/04 14:43:34;;;;;;;3.28;1.20;;;;;;;;;;4800993;29;20090;-82